createdAt,value
2022-09-04T00:00:19.353Z,0.60
2022-09-04T00:03:35.333Z,0.43
2022-09-04T00:06:13.495Z,0.50
2022-09-04T00:09:27.736Z,0.50
2022-09-04T00:12:05.707Z,0.70
2022-09-04T00:15:17.027Z,0.73
2022-09-04T00:18:13.188Z,0.80
2022-09-04T00:20:45.754Z,0.60
2022-09-04T00:23:48.219Z,0.53
2022-09-04T00:27:03.577Z,0.73
2022-09-04T00:30:07.807Z,0.70
2022-09-04T00:33:15.845Z,0.63
2022-09-04T00:35:55.175Z,0.70
2022-09-04T00:38:59.174Z,0.87
2022-09-04T00:42:21.921Z,0.60
2022-09-04T00:45:35.081Z,0.60
2022-09-04T00:49:01.034Z,0.40
2022-09-04T00:52:06.193Z,0.50
2022-09-04T00:55:28.170Z,0.50
2022-09-04T00:58:35.012Z,0.50
2022-09-04T01:01:02.830Z,0.70
2022-09-04T01:04:00.009Z,0.80
2022-09-04T01:07:23.988Z,0.60
2022-09-04T01:10:30.137Z,0.90
2022-09-04T01:13:29.193Z,0.60
2022-09-04T01:16:21.484Z,0.83
2022-09-04T01:19:13.017Z,0.50
2022-09-04T01:22:36.603Z,0.70
2022-09-04T01:25:32.122Z,0.50
2022-09-04T01:28:25.223Z,0.60
2022-09-04T01:31:22.580Z,0.57
2022-09-04T01:34:28.115Z,0.73
2022-09-04T01:37:03.934Z,0.50
2022-09-04T01:39:35.955Z,0.70
2022-09-04T01:42:20.754Z,0.70
2022-09-04T01:44:49.229Z,0.60
2022-09-04T01:47:36.705Z,0.50
2022-09-04T01:50:20.520Z,0.60
2022-09-04T01:53:27.376Z,0.67
2022-09-04T01:56:15.563Z,0.67
2022-09-04T01:59:01.171Z,0.50
2022-09-04T02:01:54.473Z,0.50
2022-09-04T02:04:51.978Z,0.60
2022-09-04T02:07:43.252Z,0.73
2022-09-04T02:10:21.617Z,0.70
2022-09-04T02:13:29.342Z,0.70
2022-09-04T02:16:26.484Z,0.80
2022-09-04T02:19:00.665Z,0.47
2022-09-04T02:22:17.534Z,0.47
2022-09-04T02:25:26.012Z,0.53
2022-09-04T02:28:18.482Z,0.57
2022-09-04T02:31:54.356Z,0.53
2022-09-04T02:34:38.190Z,0.40
2022-09-04T02:37:43.402Z,0.60
2022-09-04T02:40:38.595Z,0.70
2022-09-04T02:43:39.672Z,0.60
2022-09-04T02:47:01.642Z,0.50
2022-09-04T02:50:14.168Z,0.50
2022-09-04T02:53:03.258Z,0.67
2022-09-04T02:56:20.888Z,0.40
2022-09-04T02:59:30.950Z,0.60
2022-09-04T03:02:04.884Z,0.50
2022-09-04T03:05:00.702Z,0.50
2022-09-04T03:08:02.028Z,0.50
2022-09-04T03:10:42.870Z,0.50
2022-09-04T03:14:04.321Z,0.50
2022-09-04T03:16:47.770Z,0.40
2022-09-04T03:19:54.439Z,0.53
2022-09-04T03:22:33.276Z,0.40
2022-09-04T03:26:11.012Z,0.70
2022-09-04T03:29:14.923Z,0.53
2022-09-04T03:32:28.910Z,0.60
2022-09-04T03:35:29.064Z,0.63
2022-09-04T03:38:59.068Z,0.60
2022-09-04T03:41:57.868Z,0.40
2022-09-04T03:44:52.476Z,0.50
2022-09-04T03:48:02.433Z,0.50
2022-09-04T03:51:12.404Z,0.40
2022-09-04T03:54:08.878Z,0.67
2022-09-04T03:57:20.470Z,0.60
2022-09-04T04:00:23.463Z,0.70
2022-09-04T04:03:32.728Z,0.53
2022-09-04T04:06:31.053Z,0.60
2022-09-04T04:09:59.898Z,0.50
2022-09-04T04:13:05.376Z,0.73
2022-09-04T04:16:10.945Z,0.80
2022-09-04T04:19:52.265Z,0.47
2022-09-04T04:22:46.190Z,0.50
2022-09-04T04:26:00.665Z,0.60
2022-09-04T04:28:56.476Z,0.43
2022-09-04T04:32:17.281Z,0.60
2022-09-04T04:35:38.229Z,0.60
2022-09-04T04:38:45.984Z,0.60
2022-09-04T04:42:00.968Z,0.40
2022-09-04T04:45:22.978Z,0.73
2022-09-04T04:48:08.007Z,0.60
2022-09-04T04:51:40.426Z,0.53
2022-09-04T04:54:32.010Z,0.70
2022-09-04T04:57:42.345Z,0.63
2022-09-04T05:00:24.002Z,0.80
2022-09-04T05:03:28.118Z,0.50
2022-09-04T05:06:13.241Z,0.53
2022-09-04T05:09:13.195Z,0.57
2022-09-04T05:12:23.353Z,0.50
2022-09-04T05:15:15.286Z,0.60
2022-09-04T05:18:19.875Z,0.60
2022-09-04T05:21:16.934Z,0.57
2022-09-04T05:24:23.708Z,0.70
2022-09-04T05:27:07.234Z,0.70
2022-09-04T05:30:03.359Z,0.70
2022-09-04T05:33:19.746Z,0.60
2022-09-04T05:36:32.942Z,0.60
2022-09-04T05:39:36.970Z,0.70
2022-09-04T05:42:51.550Z,0.87
2022-09-04T05:45:44.234Z,0.60
2022-09-04T05:48:42.181Z,0.53
2022-09-04T05:52:20.693Z,0.90
2022-09-04T05:55:49.721Z,0.67
2022-09-04T05:59:01.713Z,0.80
2022-09-04T06:02:27.872Z,0.70
2022-09-04T06:05:19.190Z,0.87
2022-09-04T06:08:27.842Z,0.90
2022-09-04T06:11:31.454Z,0.90
2022-09-04T06:14:59.222Z,0.70
2022-09-04T06:18:06.606Z,0.90
2022-09-04T06:21:23.761Z,0.70
2022-09-04T06:24:33.256Z,0.83
2022-09-04T06:27:48.631Z,0.97
2022-09-04T06:30:17.828Z,0.90
2022-09-04T06:33:06.283Z,0.80
2022-09-04T06:36:12.197Z,0.87
2022-09-04T06:39:17.785Z,1.00
2022-09-04T06:42:11.475Z,1.10
2022-09-04T06:45:28.007Z,1.50
2022-09-04T06:48:42.686Z,1.00
2022-09-04T06:51:24.541Z,1.10
2022-09-04T06:54:18.528Z,0.90
2022-09-04T06:57:48.585Z,1.13
2022-09-04T07:00:18.381Z,1.10
2022-09-04T07:03:14.999Z,1.17
2022-09-04T07:06:08.917Z,1.03
2022-09-04T07:09:20.644Z,1.40
2022-09-04T07:12:28.006Z,1.20
2022-09-04T07:15:44.576Z,1.43
2022-09-04T07:18:37.261Z,1.23
2022-09-04T07:22:17.927Z,1.63
2022-09-04T07:25:12.714Z,1.40
2022-09-04T07:28:20.635Z,1.40
2022-09-04T07:31:34.839Z,1.50
2022-09-04T07:34:25.273Z,1.40
2022-09-04T07:37:32.507Z,1.70
2022-09-04T07:40:25.022Z,1.50
2022-09-04T07:43:30.150Z,1.63
2022-09-04T07:46:41.360Z,1.77
2022-09-04T07:49:29.101Z,1.70
2022-09-04T07:52:39.399Z,1.60
2022-09-04T07:55:51.962Z,1.80
2022-09-04T07:58:53.326Z,2.00
2022-09-04T08:01:53.948Z,1.80
2022-09-04T08:05:16.594Z,2.00
2022-09-04T08:08:10.458Z,1.73
2022-09-04T08:11:45.465Z,2.00
2022-09-04T08:14:22.500Z,1.73
2022-09-04T08:17:25.274Z,1.93
2022-09-04T08:20:22.579Z,1.63
2022-09-04T08:23:17.100Z,1.70
2022-09-04T08:26:35.918Z,1.90
2022-09-04T08:29:40.314Z,2.08
2022-09-04T08:33:10.274Z,1.60
2022-09-04T08:36:18.839Z,2.03
2022-09-04T08:39:13.526Z,1.90
2022-09-04T08:42:10.341Z,1.70
2022-09-04T08:45:55.232Z,1.92
2022-09-04T08:48:58.994Z,2.05
2022-09-04T08:52:22.423Z,1.65
2022-09-04T08:55:27.717Z,1.90
2022-09-04T08:58:26.674Z,1.90
2022-09-04T09:01:30.474Z,1.80
2022-09-04T09:04:55.133Z,1.95
2022-09-04T09:08:41.330Z,1.40
2022-09-04T09:12:02.556Z,1.55
2022-09-04T09:15:19.171Z,2.08
2022-09-04T09:18:35.344Z,2.15
2022-09-04T09:22:07.076Z,1.67
2022-09-04T09:25:20.420Z,1.77
2022-09-04T09:28:48.425Z,1.35
2022-09-04T09:31:47.128Z,1.70
2022-09-04T09:35:37.021Z,1.60
2022-09-04T09:38:36.034Z,1.50
2022-09-04T09:41:56.240Z,1.42
2022-09-04T09:45:36.584Z,1.90
2022-09-04T09:48:41.386Z,1.33
2022-09-04T09:52:22.261Z,1.20
2022-09-04T09:55:41.669Z,1.25
2022-09-04T09:58:38.835Z,1.48
2022-09-04T10:01:54.706Z,1.20
2022-09-04T10:05:19.322Z,1.10
2022-09-04T10:08:17.760Z,1.33
2022-09-04T10:11:46.225Z,1.30
2022-09-04T10:14:54.531Z,1.45
2022-09-04T10:17:58.667Z,1.50
2022-09-04T10:21:32.096Z,1.23
2022-09-04T10:24:22.545Z,1.67
2022-09-04T10:27:37.081Z,1.50
2022-09-04T10:30:21.383Z,1.30
2022-09-04T10:33:28.249Z,1.30
2022-09-04T10:36:27.860Z,1.27
2022-09-04T10:39:48.530Z,1.40
2022-09-04T10:42:48.296Z,1.38
2022-09-04T10:45:39.173Z,1.40
2022-09-04T10:48:54.194Z,1.40
2022-09-04T10:52:38.116Z,1.33
2022-09-04T10:55:17.615Z,1.50
2022-09-04T10:58:17.174Z,1.25
2022-09-04T11:01:06.155Z,1.45
2022-09-04T11:04:03.489Z,1.20
2022-09-04T11:06:57.869Z,1.33
2022-09-04T11:09:56.541Z,1.48
2022-09-04T11:13:23.175Z,1.40
2022-09-04T11:16:47.831Z,1.30
2022-09-04T11:20:00.720Z,1.45
2022-09-04T11:23:19.105Z,1.60
2022-09-04T11:26:33.692Z,1.40
2022-09-04T11:29:42.886Z,1.50
2022-09-04T11:32:34.408Z,1.23
2022-09-04T11:35:49.585Z,1.40
2022-09-04T11:39:03.256Z,1.23
2022-09-04T11:42:13.654Z,1.48
2022-09-04T11:45:39.238Z,1.35
2022-09-04T11:48:38.019Z,1.50
2022-09-04T11:52:14.791Z,1.20
2022-09-04T11:55:25.150Z,1.45
2022-09-04T11:58:19.254Z,1.55
2022-09-04T12:01:26.889Z,1.75
2022-09-04T12:04:46.743Z,1.58
2022-09-04T12:07:48.364Z,1.35
2022-09-04T12:10:53.162Z,1.45
2022-09-04T12:13:37.851Z,1.40
2022-09-04T12:16:59.278Z,1.58
2022-09-04T12:20:08.102Z,1.27
2022-09-04T12:23:11.214Z,1.50
2022-09-04T12:26:55.131Z,1.40
2022-09-04T12:30:14.873Z,1.75
2022-09-04T12:33:41.779Z,1.42
2022-09-04T12:36:46.217Z,1.33
2022-09-04T12:39:59.804Z,1.20
2022-09-04T12:42:50.861Z,1.20
2022-09-04T12:45:44.953Z,1.20
2022-09-04T12:49:12.143Z,1.30
2022-09-04T12:52:05.171Z,1.50
2022-09-04T12:55:03.265Z,1.35
2022-09-04T12:58:08.099Z,1.50
2022-09-04T13:01:19.914Z,1.45
2022-09-04T13:04:29.320Z,1.90
2022-09-04T13:07:41.005Z,1.70
2022-09-04T13:11:00.900Z,1.75
2022-09-04T13:14:08.891Z,1.35
2022-09-04T13:17:23.383Z,1.40
2022-09-04T13:20:19.087Z,1.27
2022-09-04T13:23:35.279Z,1.48
2022-09-04T13:27:07.626Z,1.40
2022-09-04T13:30:56.714Z,1.20
2022-09-04T13:34:13.423Z,1.52
2022-09-04T13:38:01.187Z,1.30
2022-09-04T13:41:11.044Z,1.60
2022-09-04T13:44:21.392Z,1.27
2022-09-04T13:47:13.637Z,1.50
2022-09-04T13:50:11.215Z,1.60
2022-09-04T13:53:02.911Z,1.50
2022-09-04T13:55:41.776Z,1.35
2022-09-04T13:58:28.021Z,1.60
2022-09-04T14:01:06.498Z,1.55
2022-09-04T14:04:04.813Z,1.88
2022-09-04T14:06:35.798Z,1.38
2022-09-04T14:09:05.673Z,1.60
2022-09-04T14:12:06.358Z,1.23
2022-09-04T14:15:08.079Z,1.50
2022-09-04T14:18:27.869Z,1.60
2022-09-04T14:21:37.467Z,1.50
2022-09-04T14:24:46.045Z,1.30
2022-09-04T14:28:06.779Z,1.88
2022-09-04T14:30:56.117Z,1.27
2022-09-04T14:33:56.462Z,1.60
2022-09-04T14:37:35.316Z,1.50
2022-09-04T14:40:11.359Z,1.42
2022-09-04T14:43:17.169Z,1.50
2022-09-04T14:46:25.929Z,1.40
2022-09-04T14:49:15.213Z,1.60
2022-09-04T14:51:46.617Z,1.23
2022-09-04T14:54:27.932Z,1.30
2022-09-04T14:57:42.355Z,1.55
2022-09-04T15:00:15.078Z,1.40
2022-09-04T15:03:21.998Z,1.63
2022-09-04T15:06:01.200Z,1.70
2022-09-04T15:08:39.972Z,1.60
2022-09-04T15:11:34.757Z,1.40
2022-09-04T15:14:26.275Z,1.52
2022-09-04T15:17:00.867Z,1.80
2022-09-04T15:20:03.400Z,1.60
2022-09-04T15:22:45.454Z,1.60
2022-09-04T15:25:18.616Z,1.50
2022-09-04T15:28:25.320Z,1.40
2022-09-04T15:31:15.629Z,1.40
2022-09-04T15:33:47.574Z,1.30
2022-09-04T15:36:24.525Z,1.67
2022-09-04T15:38:59.757Z,1.58
2022-09-04T15:41:45.189Z,1.60
2022-09-04T15:44:47.905Z,1.08
2022-09-04T15:47:23.816Z,1.48
2022-09-04T15:50:00.790Z,1.75
2022-09-04T15:53:08.962Z,1.55
2022-09-04T15:55:44.360Z,1.30
2022-09-04T15:58:40.057Z,1.52
2022-09-04T16:01:27.489Z,1.50
2022-09-04T16:04:46.901Z,1.60
2022-09-04T16:07:23.307Z,1.30
2022-09-04T16:10:25.779Z,1.25
2022-09-04T16:13:06.310Z,1.40
2022-09-04T16:15:42.991Z,1.40
2022-09-04T16:18:21.161Z,1.05
2022-09-04T16:21:01.245Z,1.10
2022-09-04T16:23:39.152Z,1.35
2022-09-04T16:26:23.209Z,1.20
2022-09-04T16:28:58.776Z,1.75
2022-09-04T16:31:36.817Z,1.73
2022-09-04T16:34:55.577Z,2.22
2022-09-04T16:37:42.467Z,1.40
2022-09-04T16:40:38.063Z,1.42
2022-09-04T16:43:25.801Z,1.38
2022-09-04T16:46:13.589Z,1.50
2022-09-04T16:49:01.374Z,1.60
2022-09-04T16:51:48.458Z,1.60
2022-09-04T16:54:39.067Z,1.77
2022-09-04T16:57:21.427Z,1.52
2022-09-04T17:00:08.984Z,1.58
2022-09-04T17:03:07.847Z,1.50
2022-09-04T17:05:53.702Z,1.50
2022-09-04T17:08:49.859Z,1.58
2022-09-04T17:11:55.459Z,1.50
2022-09-04T17:14:35.310Z,1.60
2022-09-04T17:17:31.393Z,1.67
2022-09-04T17:20:20.751Z,1.95
2022-09-04T17:29:03.906Z,1.80
2022-09-04T17:29:15.600Z,1.50
2022-09-04T17:29:47.112Z,1.30
2022-09-04T17:37:17.524Z,1.60
2022-09-04T17:40:33.905Z,1.90
2022-09-04T17:40:41.016Z,1.60
2022-09-04T17:42:09.482Z,1.65
2022-09-04T17:44:50.410Z,1.77
2022-09-04T17:47:38.054Z,1.90
2022-09-04T17:50:16.428Z,1.73
2022-09-04T17:53:14.755Z,1.60
2022-09-04T17:56:17.529Z,1.70
2022-09-04T17:59:00.938Z,1.60
2022-09-04T18:01:52.277Z,1.58
2022-09-04T18:04:47.169Z,2.15
2022-09-04T18:08:07.932Z,1.50
2022-09-04T18:11:03.139Z,1.80
2022-09-04T18:14:04.022Z,1.60
2022-09-04T18:16:38.837Z,1.90
2022-09-04T18:19:28.910Z,2.05
2022-09-04T18:22:26.684Z,1.85
2022-09-04T18:25:33.340Z,1.60
2022-09-04T18:28:49.959Z,2.03
2022-09-04T18:37:09.373Z,1.60
2022-09-04T18:37:16.261Z,1.80
2022-09-04T18:39:08.204Z,1.88
2022-09-04T18:45:47.608Z,1.70
2022-09-04T18:50:34.797Z,2.13
2022-09-04T18:50:49.100Z,1.90
2022-09-04T18:51:30.549Z,1.90
2022-09-04T18:54:33.702Z,2.20
2022-09-04T18:57:13.322Z,2.28
2022-09-04T18:59:45.506Z,1.85
2022-09-04T19:02:29.611Z,1.70
2022-09-04T19:05:09.890Z,1.73
2022-09-04T19:07:55.949Z,1.95
2022-09-04T19:10:46.654Z,2.10
2022-09-04T19:13:52.688Z,1.92
2022-09-04T19:16:53.417Z,1.90
2022-09-04T19:19:47.737Z,1.88
2022-09-04T19:22:32.805Z,1.70
2022-09-04T19:25:36.482Z,1.83
2022-09-04T19:28:27.405Z,1.73
2022-09-04T19:31:25.242Z,2.10
2022-09-04T19:34:13.583Z,2.40
2022-09-04T19:36:59.121Z,2.07
2022-09-04T19:45:57.548Z,2.20
2022-09-04T19:46:12.953Z,1.67
2022-09-04T19:51:13.502Z,2.10
2022-09-04T19:53:24.471Z,1.95
2022-09-04T19:55:24.906Z,2.72
2022-09-04T19:58:10.413Z,2.03
2022-09-04T20:00:50.414Z,2.13
2022-09-04T20:04:08.541Z,2.05
2022-09-04T20:06:47.359Z,2.13
2022-09-04T20:09:37.439Z,2.28
2022-09-04T20:12:34.859Z,1.87
2022-09-04T20:15:31.448Z,2.00
2022-09-04T20:18:24.752Z,2.23
2022-09-04T20:21:14.698Z,1.90
2022-09-04T20:24:04.442Z,2.33
2022-09-04T20:26:56.364Z,2.27
2022-09-04T20:29:36.043Z,2.37
2022-09-04T20:32:37.514Z,2.00
2022-09-04T20:35:32.901Z,2.10
2022-09-04T20:38:34.368Z,2.30
2022-09-04T20:41:07.656Z,2.00
2022-09-04T20:43:54.402Z,2.30
2022-09-04T20:50:37.458Z,2.13
2022-09-04T20:52:52.793Z,2.30
2022-09-04T20:53:35.048Z,2.67
2022-09-04T20:56:28.137Z,2.47
2022-09-04T21:03:12.857Z,2.17
2022-09-04T21:03:19.734Z,2.40
2022-09-04T21:05:28.983Z,2.33
2022-09-04T21:08:43.548Z,2.23
2022-09-04T21:11:40.639Z,2.13
2022-09-04T21:14:44.675Z,2.30
2022-09-04T21:18:01.360Z,2.30
2022-09-04T21:21:09.482Z,2.33
2022-09-04T21:24:23.152Z,2.37
2022-09-04T21:27:53.736Z,2.37
2022-09-04T21:31:21.858Z,2.27
2022-09-04T21:34:43.263Z,2.60
2022-09-04T21:37:23.887Z,2.33
2022-09-04T21:40:51.286Z,2.47
2022-09-04T21:44:00.325Z,2.40
2022-09-04T21:47:08.658Z,2.30
2022-09-04T21:50:43.642Z,2.23
2022-09-04T21:53:57.642Z,2.30
2022-09-04T22:02:30.898Z,2.07
2022-09-04T22:02:35.694Z,2.60
2022-09-04T22:03:09.440Z,2.27
2022-09-04T22:06:55.721Z,2.77
2022-09-04T22:13:30.587Z,2.50
2022-09-04T22:13:46.007Z,2.87
2022-09-04T22:16:32.845Z,2.73
2022-09-04T22:20:05.341Z,3.10
2022-09-04T22:23:34.528Z,2.67
2022-09-04T22:26:47.834Z,2.77
2022-09-04T22:29:40.510Z,2.63
2022-09-04T22:32:46.046Z,2.80
2022-09-04T22:35:35.647Z,2.80
2022-09-04T22:39:14.777Z,2.90
2022-09-04T22:42:20.901Z,2.47
2022-09-04T22:45:24.441Z,2.93
2022-09-04T22:48:36.360Z,3.10
2022-09-04T22:51:56.741Z,2.93
2022-09-04T22:54:57.249Z,2.83
2022-09-04T22:57:50.428Z,3.00
2022-09-04T23:00:22.692Z,2.97
2022-09-04T23:03:55.601Z,2.97
2022-09-04T23:10:43.494Z,3.10
2022-09-04T23:13:50.842Z,2.80
2022-09-04T23:14:23.791Z,3.20
2022-09-04T23:17:32.595Z,2.60
2022-09-04T23:26:32.846Z,2.50
2022-09-04T23:26:54.239Z,2.70
2022-09-04T23:27:28.628Z,2.53
2022-09-04T23:30:25.598Z,2.80
2022-09-04T23:33:42.233Z,3.20
2022-09-04T23:36:52.028Z,2.90
2022-09-04T23:39:50.644Z,2.70
2022-09-04T23:42:40.551Z,2.73
2022-09-04T23:45:48.811Z,2.90
2022-09-04T23:49:08.115Z,2.53
2022-09-04T23:51:56.335Z,3.10
2022-09-04T23:54:59.761Z,2.57
2022-09-04T23:58:35.038Z,2.70
